createdAt,value
2019-03-11T00:00:53.188Z,96948.47
2019-03-11T00:03:23.443Z,96948.44
2019-03-11T00:05:53.257Z,96961.69
2019-03-11T00:08:23.025Z,96964.66
2019-03-11T00:10:52.871Z,96969.34
2019-03-11T00:13:22.651Z,96977.84
2019-03-11T00:15:52.390Z,96975.30
2019-03-11T00:18:22.251Z,96990.70
2019-03-11T00:20:51.995Z,96989.13
2019-03-11T00:23:21.766Z,96998.02
2019-03-11T00:25:51.646Z,96993.23
2019-03-11T00:28:21.448Z,96996.80
2019-03-11T00:30:51.188Z,97010.17
2019-03-11T00:33:23.648Z,97012.09
2019-03-11T00:35:56.961Z,97009.94
2019-03-11T00:38:26.869Z,97008.97
2019-03-11T00:40:56.743Z,96992.44
2019-03-11T00:43:26.568Z,96993.98
2019-03-11T00:45:56.293Z,96996.57
2019-03-11T00:48:26.066Z,97007.55
2019-03-11T00:50:55.889Z,96993.00
2019-03-11T00:53:27.750Z,97008.22
2019-03-11T00:55:57.510Z,97000.64
2019-03-11T00:58:29.237Z,97006.36
2019-03-11T01:00:59.387Z,97003.52
2019-03-11T01:03:29.331Z,97013.37
2019-03-11T01:06:01.656Z,97025.56
2019-03-11T01:08:31.499Z,97025.52
2019-03-11T01:11:02.229Z,97028.58
2019-03-11T01:13:32.155Z,97053.68
2019-03-11T01:16:01.967Z,97035.87
2019-03-11T01:18:31.772Z,97045.36
2019-03-11T01:21:01.568Z,97050.91
2019-03-11T01:23:31.348Z,97051.75
2019-03-11T01:26:01.129Z,97047.14
2019-03-11T01:28:30.958Z,97055.75
2019-03-11T01:31:01.563Z,97057.00
2019-03-11T01:33:33.344Z,97063.65
2019-03-11T01:36:04.738Z,97081.37
2019-03-11T01:38:34.604Z,97080.25
2019-03-11T01:41:04.430Z,97079.48
2019-03-11T01:43:34.268Z,97090.10
2019-03-11T01:46:04.026Z,97093.06
2019-03-11T01:48:33.792Z,97112.34
2019-03-11T01:51:03.524Z,97111.20
2019-03-11T01:53:33.289Z,97119.24
2019-03-11T01:56:03.063Z,97118.74
2019-03-11T01:58:32.866Z,97131.85
2019-03-11T02:01:02.676Z,97136.28
2019-03-11T02:03:32.438Z,97145.36
2019-03-11T02:06:02.234Z,97034.96
2019-03-11T02:08:31.910Z,97142.73
2019-03-11T02:11:01.610Z,97147.03
2019-03-11T02:13:31.428Z,97150.30
2019-03-11T02:16:01.229Z,97151.35
2019-03-11T02:18:31.026Z,97140.33
2019-03-11T02:21:01.136Z,97144.08
2019-03-11T02:23:30.943Z,97146.82
2019-03-11T02:26:00.854Z,97146.91
2019-03-11T02:28:30.631Z,97145.55
2019-03-11T02:31:00.460Z,97150.68
2019-03-11T02:33:31.271Z,97142.98
2019-03-11T02:36:01.025Z,97157.30
2019-03-11T02:38:30.828Z,97166.88
2019-03-11T02:41:00.625Z,97166.60
2019-03-11T02:43:30.376Z,97176.16
2019-03-11T02:46:00.209Z,97169.70
2019-03-11T02:48:29.982Z,97173.09
2019-03-11T02:50:59.786Z,97166.42
2019-03-11T02:53:31.215Z,97150.13
2019-03-11T02:56:01.028Z,97177.64
2019-03-11T02:58:31.744Z,97186.04
2019-03-11T03:01:18.153Z,97182.89
2019-03-11T03:03:58.514Z,97181.25
2019-03-11T03:06:29.207Z,97195.12
2019-03-11T03:08:59.010Z,97204.65
2019-03-11T03:11:29.258Z,97210.36
2019-03-11T03:13:59.031Z,97213.83
2019-03-11T03:16:28.807Z,97221.33
2019-03-11T03:18:58.603Z,97218.98
2019-03-11T03:21:28.298Z,97237.64
2019-03-11T03:23:58.057Z,97235.82
2019-03-11T03:26:27.884Z,97240.40
2019-03-11T03:28:57.710Z,97239.91
2019-03-11T03:31:27.475Z,97250.18
2019-03-11T03:34:00.605Z,97249.40
2019-03-11T03:36:30.375Z,97249.37
2019-03-11T03:39:00.155Z,97257.80
2019-03-11T03:41:29.952Z,97268.03
2019-03-11T03:43:59.689Z,97272.00
2019-03-11T03:46:29.674Z,97271.42
2019-03-11T03:49:00.054Z,97282.41
2019-03-11T03:51:29.992Z,97287.91
2019-03-11T03:53:59.829Z,97305.19
2019-03-11T03:56:30.582Z,97297.45
2019-03-11T03:59:03.264Z,97300.02
2019-03-11T04:01:33.008Z,97300.63
2019-03-11T04:04:02.842Z,97302.33
2019-03-11T04:06:32.677Z,97300.16
2019-03-11T04:09:02.499Z,97311.55
2019-03-11T04:11:32.252Z,97313.84
2019-03-11T04:14:02.094Z,97318.55
2019-03-11T04:16:31.974Z,97329.82
2019-03-11T04:19:01.805Z,97334.55
2019-03-11T04:21:32.682Z,97310.48
2019-03-11T04:24:02.489Z,97328.98
2019-03-11T04:26:32.262Z,97337.27
2019-03-11T04:29:02.032Z,97333.45
2019-03-11T04:31:31.884Z,97308.13
2019-03-11T04:34:01.717Z,97310.49
2019-03-11T04:36:31.485Z,97335.11
2019-03-11T04:39:01.449Z,97324.30
2019-03-11T04:41:31.195Z,97349.00
2019-03-11T04:44:00.976Z,97327.62
2019-03-11T04:46:30.768Z,97343.34
2019-03-11T04:49:02.981Z,97360.31
2019-03-11T04:51:33.711Z,97377.19
2019-03-11T04:54:03.458Z,97379.61
2019-03-11T04:56:33.203Z,97394.50
2019-03-11T04:59:15.052Z,97401.14
2019-03-11T05:01:44.833Z,97389.89
2019-03-11T05:04:15.026Z,97392.44
2019-03-11T05:06:44.942Z,97384.84
2019-03-11T05:09:17.503Z,97373.59
2019-03-11T05:11:48.947Z,97374.31
2019-03-11T05:14:19.126Z,97362.61
2019-03-11T05:16:50.680Z,97363.97
2019-03-11T05:19:21.770Z,97386.86
2019-03-11T05:21:52.696Z,97386.58
2019-03-11T05:24:22.897Z,97400.86
2019-03-11T05:26:52.764Z,97404.97
2019-03-11T05:29:23.023Z,97415.96
2019-03-11T05:31:55.234Z,97416.52
2019-03-11T05:34:25.556Z,97406.95
2019-03-11T05:36:55.328Z,97402.56
2019-03-11T05:39:25.531Z,97423.70
2019-03-11T05:41:55.339Z,97407.53
2019-03-11T05:44:26.506Z,97403.66
2019-03-11T05:46:57.878Z,97393.21
2019-03-11T05:49:29.095Z,97399.81
2019-03-11T05:51:58.975Z,97401.08
2019-03-11T05:54:29.721Z,97408.15
2019-03-11T05:57:01.138Z,97415.42
2019-03-11T05:59:31.294Z,97420.67
2019-03-11T06:02:01.603Z,97427.64
2019-03-11T06:04:31.429Z,97422.81
2019-03-11T06:07:01.206Z,97430.66
2019-03-11T06:09:31.343Z,97431.22
2019-03-11T06:12:01.491Z,97432.22
2019-03-11T06:14:31.265Z,97433.32
2019-03-11T06:17:01.028Z,97430.91
2019-03-11T06:19:31.299Z,97444.33
2019-03-11T06:22:03.143Z,97439.03
2019-03-11T06:24:32.895Z,97446.69
2019-03-11T06:27:03.048Z,97448.50
2019-03-11T06:29:32.734Z,97453.14
2019-03-11T06:32:02.577Z,97457.70
2019-03-11T06:34:32.894Z,97461.40
2019-03-11T06:37:02.673Z,97463.23
2019-03-11T06:39:32.426Z,97477.35
2019-03-11T06:42:02.885Z,97474.08
2019-03-11T06:44:32.932Z,97476.28
2019-03-11T06:47:03.013Z,97476.33
2019-03-11T06:49:32.784Z,97480.61
2019-03-11T06:52:03.720Z,97480.48
2019-03-11T06:54:33.510Z,97479.54
2019-03-11T06:57:03.269Z,97483.45
2019-03-11T06:59:33.109Z,97484.61
2019-03-11T07:02:04.481Z,97488.77
2019-03-11T07:04:36.774Z,97488.13
2019-03-11T07:07:06.553Z,97503.52
2019-03-11T07:09:36.359Z,97500.47
2019-03-11T07:12:06.212Z,97510.79
2019-03-11T07:14:36.290Z,97514.69
2019-03-11T07:17:06.434Z,97513.97
2019-03-11T07:19:37.716Z,97518.19
2019-03-11T07:22:07.561Z,97507.77
2019-03-11T07:24:38.908Z,97513.89
2019-03-11T07:27:09.962Z,97515.86
2019-03-11T07:29:39.528Z,97509.17
2019-03-11T07:32:09.449Z,97500.67
2019-03-11T07:34:39.408Z,97500.59
2019-03-11T07:37:09.573Z,97483.30
2019-03-11T07:39:40.859Z,97482.31
2019-03-11T07:42:11.440Z,97371.13
2019-03-11T07:44:41.094Z,97457.95
2019-03-11T07:47:11.893Z,97446.95
2019-03-11T07:49:42.277Z,97439.85
2019-03-11T07:52:13.269Z,97440.42
2019-03-11T07:54:46.733Z,97418.70
2019-03-11T07:57:16.928Z,97413.14
2019-03-11T07:59:48.394Z,97421.77
2019-03-11T08:02:18.695Z,97411.00
2019-03-11T08:04:49.812Z,97405.39
2019-03-11T08:07:20.430Z,97399.36
2019-03-11T08:09:51.294Z,97398.30
2019-03-11T08:12:20.947Z,97387.66
2019-03-11T08:14:51.618Z,97383.77
2019-03-11T08:17:23.067Z,97383.16
2019-03-11T08:19:53.519Z,97375.41
2019-03-11T08:22:23.387Z,97369.39
2019-03-11T08:24:53.204Z,97373.93
2019-03-11T08:27:22.990Z,97371.48
2019-03-11T08:29:53.042Z,97358.38
2019-03-11T08:32:24.374Z,97354.02
2019-03-11T08:34:56.427Z,97338.75
2019-03-11T08:37:28.068Z,97330.24
2019-03-11T08:39:58.261Z,97310.45
2019-03-11T08:42:29.098Z,97300.06
2019-03-11T08:44:59.074Z,97272.59
2019-03-11T08:47:30.633Z,97258.81
2019-03-11T08:50:02.949Z,97259.75
2019-03-11T08:52:34.414Z,97252.92
2019-03-11T08:55:06.163Z,97246.12
2019-03-11T08:57:40.035Z,97232.13
2019-03-11T09:00:16.526Z,97067.91
2019-03-11T09:02:47.260Z,97218.03
2019-03-11T09:05:17.078Z,97219.02
2019-03-11T09:07:46.846Z,97208.02
2019-03-11T09:10:19.374Z,97188.56
2019-03-11T09:12:49.171Z,97178.98
2019-03-11T09:15:22.982Z,97191.92
2019-03-11T09:17:52.817Z,97172.05
2019-03-11T09:20:23.512Z,97134.81
2019-03-11T09:22:53.450Z,97136.48
2019-03-11T09:25:25.183Z,97167.03
2019-03-11T09:27:54.984Z,97151.63
2019-03-11T09:30:25.014Z,97161.65
2019-03-11T09:32:54.702Z,97159.23
2019-03-11T09:35:26.901Z,97164.11
2019-03-11T09:37:56.633Z,97155.47
2019-03-11T09:40:26.618Z,97160.35
2019-03-11T09:42:56.636Z,97159.97
2019-03-11T09:45:26.269Z,97163.31
2019-03-11T09:47:56.234Z,97171.33
2019-03-11T09:50:26.038Z,97161.53
2019-03-11T09:52:55.870Z,97183.52
2019-03-11T09:55:31.813Z,97153.22
2019-03-11T09:58:04.675Z,97154.03
2019-03-11T10:00:35.647Z,97168.31
2019-03-11T10:03:05.635Z,97162.66
2019-03-11T10:05:36.989Z,97165.33
2019-03-11T10:08:07.447Z,97153.91
2019-03-11T10:10:38.223Z,97147.19
2019-03-11T10:13:09.504Z,97145.41
2019-03-11T10:15:39.499Z,97136.96
2019-03-11T10:18:10.236Z,97130.70
2019-03-11T10:20:40.241Z,97127.11
2019-03-11T10:23:11.378Z,97113.59
2019-03-11T10:25:41.566Z,97111.90
2019-03-11T10:28:12.249Z,97109.50
2019-03-11T10:30:44.622Z,97102.52
2019-03-11T10:33:16.882Z,97108.03
2019-03-11T10:35:48.461Z,97113.69
2019-03-11T10:38:19.158Z,97118.05
2019-03-11T10:40:51.035Z,97114.97
2019-03-11T10:43:21.970Z,97124.02
2019-03-11T10:45:52.213Z,97112.96
2019-03-11T10:48:22.944Z,97112.03
2019-03-11T10:50:54.556Z,97101.23
2019-03-11T10:53:26.787Z,97091.00
2019-03-11T10:55:57.187Z,97094.61
2019-03-11T10:58:29.318Z,97077.46
2019-03-11T11:00:59.770Z,97063.70
2019-03-11T11:03:29.462Z,97066.72
2019-03-11T11:06:00.299Z,97057.83
2019-03-11T11:08:32.891Z,97061.28
2019-03-11T11:11:03.209Z,97062.33
2019-03-11T11:13:34.401Z,97048.75
2019-03-11T11:16:04.906Z,97053.19
2019-03-11T11:18:36.458Z,97061.09
2019-03-11T11:21:06.352Z,97059.75
2019-03-11T11:23:36.359Z,97059.91
2019-03-11T11:26:07.105Z,97054.94
2019-03-11T11:28:36.908Z,97039.19
2019-03-11T11:31:06.762Z,97031.00
2019-03-11T11:33:36.919Z,97023.44
2019-03-11T11:36:06.727Z,97013.20
2019-03-11T11:38:36.894Z,97015.96
2019-03-11T11:41:07.732Z,97009.16
2019-03-11T11:43:37.388Z,97021.10
2019-03-11T11:46:07.222Z,97019.45
2019-03-11T11:48:38.622Z,97012.02
2019-03-11T11:51:08.326Z,97006.16
2019-03-11T11:53:38.081Z,97003.53
2019-03-11T11:56:08.447Z,96997.37
2019-03-11T11:58:40.711Z,96999.89
2019-03-11T12:01:09.761Z,97017.61
2019-03-11T12:03:39.548Z,96995.02
2019-03-11T12:06:09.365Z,97013.51
2019-03-11T12:08:40.066Z,97002.15
2019-03-11T12:11:09.899Z,96996.49
2019-03-11T12:13:39.657Z,97012.67
2019-03-11T12:16:09.532Z,97007.30
2019-03-11T12:18:39.293Z,97002.88
2019-03-11T12:21:12.206Z,97052.69
2019-03-11T12:23:46.253Z,97061.78
2019-03-11T12:26:13.844Z,97071.48
2019-03-11T12:28:43.643Z,97074.48
2019-03-11T12:31:13.390Z,97107.34
2019-03-11T12:33:43.154Z,97125.49
2019-03-11T12:36:13.862Z,97135.25
2019-03-11T12:38:43.876Z,97161.05
2019-03-11T12:41:13.522Z,97175.45
2019-03-11T12:43:43.408Z,97212.16
2019-03-11T12:46:13.141Z,97221.08
2019-03-11T12:48:42.960Z,97226.47
2019-03-11T12:51:12.727Z,97231.09
2019-03-11T12:53:46.075Z,97241.67
2019-03-11T12:56:15.919Z,97228.55
2019-03-11T12:58:46.711Z,97228.94
2019-03-11T13:01:16.445Z,97243.85
2019-03-11T13:03:46.246Z,97242.36
2019-03-11T13:06:16.048Z,97050.03
2019-03-11T13:08:45.894Z,97256.03
2019-03-11T13:11:15.777Z,97260.33
2019-03-11T13:13:45.612Z,97250.76
2019-03-11T13:16:15.373Z,97256.77
2019-03-11T13:18:45.194Z,97220.71
2019-03-11T13:21:20.548Z,97236.89
2019-03-11T13:23:50.316Z,97238.67
2019-03-11T13:26:20.149Z,97237.88
2019-03-11T13:28:49.952Z,97232.20
2019-03-11T13:31:19.736Z,97233.73
2019-03-11T13:33:49.547Z,97228.41
2019-03-11T13:36:20.084Z,97231.77
2019-03-11T13:38:49.937Z,97226.37
2019-03-11T13:41:19.746Z,97226.27
2019-03-11T13:43:49.681Z,97232.44
2019-03-11T13:46:19.627Z,97242.05
2019-03-11T13:48:49.461Z,97245.02
2019-03-11T13:51:19.240Z,97249.67
2019-03-11T13:53:48.927Z,97252.17
2019-03-11T13:56:19.121Z,97259.23
2019-03-11T13:58:48.714Z,97260.77
2019-03-11T14:01:21.153Z,97261.31
2019-03-11T14:03:50.216Z,97269.34
2019-03-11T14:06:20.026Z,97280.22
2019-03-11T14:08:50.040Z,97274.22
2019-03-11T14:11:19.683Z,97264.97
2019-03-11T14:13:50.448Z,97267.50
2019-03-11T14:16:20.246Z,97273.91
2019-03-11T14:18:50.027Z,97269.22
2019-03-11T14:21:25.690Z,97274.38
2019-03-11T14:23:51.279Z,97273.30
2019-03-11T14:26:21.077Z,97280.55
2019-03-11T14:28:50.862Z,97291.31
2019-03-11T14:31:20.671Z,97277.40
2019-03-11T14:33:50.471Z,97290.70
2019-03-11T14:36:20.402Z,97293.17
2019-03-11T14:38:50.246Z,97302.50
2019-03-11T14:41:20.024Z,97313.01
2019-03-11T14:43:49.769Z,97325.50
2019-03-11T14:46:19.588Z,97337.45
2019-03-11T14:48:49.444Z,97336.05
2019-03-11T14:51:19.220Z,97335.20
2019-03-11T14:53:49.004Z,97346.84
2019-03-11T14:56:18.813Z,97340.83
2019-03-11T14:58:48.806Z,97346.69
2019-03-11T15:01:18.392Z,97337.25
2019-03-11T15:03:48.977Z,97338.06
2019-03-11T15:06:18.901Z,97336.67
2019-03-11T15:08:48.741Z,97342.88
2019-03-11T15:11:20.393Z,97346.34
2019-03-11T15:13:50.854Z,97342.00
2019-03-11T15:16:20.690Z,97342.38
2019-03-11T15:18:50.606Z,97346.47
2019-03-11T15:21:21.166Z,97345.44
2019-03-11T15:23:51.206Z,97345.03
2019-03-11T15:26:25.129Z,97348.36
2019-03-11T15:28:52.483Z,97359.25
2019-03-11T15:31:22.289Z,97359.50
2019-03-11T15:33:52.062Z,97357.29
2019-03-11T15:36:32.908Z,97356.84
2019-03-11T15:38:53.619Z,97354.78
2019-03-11T15:41:23.596Z,97370.77
2019-03-11T15:43:54.806Z,97365.09
2019-03-11T15:46:24.866Z,97365.90
2019-03-11T15:48:57.420Z,97358.58
2019-03-11T15:51:36.174Z,97368.10
2019-03-11T15:53:58.925Z,97226.73
2019-03-11T15:56:28.716Z,97379.97
2019-03-11T15:58:58.581Z,97395.43
2019-03-11T16:01:28.570Z,97418.81
2019-03-11T16:03:58.342Z,97425.59
2019-03-11T16:06:28.215Z,97442.61
2019-03-11T16:08:58.586Z,97444.02
2019-03-11T16:11:28.477Z,97443.64
2019-03-11T16:13:59.329Z,97447.56
2019-03-11T16:16:29.138Z,97445.14
2019-03-11T16:18:58.806Z,97441.95
2019-03-11T16:21:28.420Z,97433.99
2019-03-11T16:23:58.407Z,97442.70
2019-03-11T16:26:28.208Z,97437.59
2019-03-11T16:28:58.240Z,97431.00
2019-03-11T16:31:28.060Z,97436.14
2019-03-11T16:33:57.748Z,97427.20
2019-03-11T16:36:28.253Z,97435.25
2019-03-11T16:38:58.048Z,97433.20
2019-03-11T16:41:27.920Z,97438.58
2019-03-11T16:43:57.772Z,97427.44
2019-03-11T16:46:27.754Z,97436.14
2019-03-11T16:48:58.931Z,97443.68
2019-03-11T16:51:30.413Z,97454.21
2019-03-11T16:54:00.531Z,97459.77
2019-03-11T16:56:30.765Z,97460.93
2019-03-11T16:59:00.609Z,97461.45
2019-03-11T17:01:30.631Z,97474.42
2019-03-11T17:04:00.434Z,97488.04
2019-03-11T17:06:30.403Z,97497.86
2019-03-11T17:09:00.324Z,97500.23
2019-03-11T17:11:30.157Z,97505.35
2019-03-11T17:13:59.988Z,97521.67
2019-03-11T17:16:29.989Z,97528.67
2019-03-11T17:18:59.677Z,97533.97
2019-03-11T17:21:29.686Z,97545.55
2019-03-11T17:23:59.425Z,97555.72
2019-03-11T17:26:29.273Z,97556.52
2019-03-11T17:29:00.063Z,97577.43
2019-03-11T17:31:29.811Z,97585.80
2019-03-11T17:33:59.654Z,97596.68
2019-03-11T17:36:30.410Z,97593.66
2019-03-11T17:39:00.213Z,97601.29
2019-03-11T17:41:30.047Z,97603.14
2019-03-11T17:44:00.140Z,97608.86
2019-03-11T17:46:29.973Z,97607.64
2019-03-11T17:48:59.993Z,97611.94
2019-03-11T17:51:30.012Z,97611.39
2019-03-11T17:53:59.961Z,97613.00
2019-03-11T17:56:29.870Z,97614.98
2019-03-11T17:58:59.687Z,97607.08
2019-03-11T18:01:29.485Z,97601.70
2019-03-11T18:04:00.082Z,97601.77
2019-03-11T18:06:29.921Z,97606.59
2019-03-11T18:08:59.865Z,97610.17
2019-03-11T18:11:29.711Z,97614.69
2019-03-11T18:13:59.414Z,97611.64
2019-03-11T18:16:29.206Z,97616.43
2019-03-11T18:18:59.004Z,97611.70
2019-03-11T18:21:29.029Z,97620.42
2019-03-11T18:23:59.232Z,97623.63
2019-03-11T18:26:29.170Z,97625.86
2019-03-11T18:28:59.021Z,97635.88
2019-03-11T18:31:29.115Z,97633.66
2019-03-11T18:33:58.935Z,97627.52
2019-03-11T18:36:29.086Z,97623.61
2019-03-11T18:38:59.329Z,97622.37
2019-03-11T18:41:29.311Z,97631.19
2019-03-11T18:43:59.192Z,97634.69
2019-03-11T18:46:29.024Z,97646.81
2019-03-11T18:48:58.960Z,97648.69
2019-03-11T18:51:28.766Z,97663.46
2019-03-11T18:53:58.692Z,97666.87
2019-03-11T18:56:28.500Z,97668.61
2019-03-11T18:58:59.330Z,97672.53
2019-03-11T19:01:29.104Z,97678.67
2019-03-11T19:03:59.076Z,97684.36
2019-03-11T19:06:28.980Z,97681.77
2019-03-11T19:08:59.830Z,97692.59
2019-03-11T19:11:30.144Z,97692.68
2019-03-11T19:14:00.207Z,97692.28
2019-03-11T19:16:30.093Z,97685.78
2019-03-11T19:18:59.954Z,97690.56
2019-03-11T19:21:29.731Z,97689.17
2019-03-11T19:23:59.606Z,97678.71
2019-03-11T19:26:30.961Z,97677.96
2019-03-11T19:29:00.837Z,97676.63
2019-03-11T19:31:30.698Z,97682.23
2019-03-11T19:34:00.569Z,97694.31
2019-03-11T19:36:30.378Z,97699.62
2019-03-11T19:39:00.211Z,97706.16
2019-03-11T19:41:30.266Z,97711.75
2019-03-11T19:44:00.068Z,97702.21
2019-03-11T19:46:29.937Z,97707.79
2019-03-11T19:48:59.953Z,97710.38
2019-03-11T19:51:29.686Z,97703.89
2019-03-11T19:53:59.572Z,97717.33
2019-03-11T19:56:29.832Z,97715.17
2019-03-11T19:58:59.883Z,97724.31
2019-03-11T20:01:30.157Z,97722.61
2019-03-11T20:03:59.837Z,97726.48
2019-03-11T20:06:29.833Z,97733.91
2019-03-11T20:08:59.751Z,97733.48
2019-03-11T20:11:29.572Z,97722.31
2019-03-11T20:13:59.420Z,97723.98
2019-03-11T20:16:29.933Z,97722.63
2019-03-11T20:18:59.878Z,97725.24
2019-03-11T20:21:29.814Z,97741.60
2019-03-11T20:23:59.615Z,97737.70
2019-03-11T20:26:31.043Z,97740.78
2019-03-11T20:29:00.908Z,97733.00
2019-03-11T20:31:30.757Z,97734.25
2019-03-11T20:34:00.843Z,97736.72
2019-03-11T20:36:30.675Z,97736.08
2019-03-11T20:39:01.283Z,97732.16
2019-03-11T20:41:32.500Z,97734.23
2019-03-11T20:44:04.881Z,97743.38
2019-03-11T20:46:34.470Z,97752.48
2019-03-11T20:49:05.488Z,97749.45
2019-03-11T20:51:35.621Z,97755.45
2019-03-11T20:54:06.884Z,97758.04
2019-03-11T20:56:36.828Z,97757.20
2019-03-11T20:59:07.050Z,97748.56
2019-03-11T21:01:37.983Z,97747.26
2019-03-11T21:04:07.889Z,97752.19
2019-03-11T21:06:38.191Z,97766.08
2019-03-11T21:09:08.730Z,97768.66
2019-03-11T21:11:39.200Z,97770.79
2019-03-11T21:14:09.288Z,97771.19
2019-03-11T21:16:39.497Z,97772.52
2019-03-11T21:19:09.527Z,97780.78
2019-03-11T21:21:40.057Z,97797.67
2019-03-11T21:24:09.970Z,97791.66
2019-03-11T21:26:39.923Z,97792.99
2019-03-11T21:29:10.061Z,97790.48
2019-03-11T21:31:39.952Z,97790.04
2019-03-11T21:34:11.497Z,97787.83
2019-03-11T21:36:41.475Z,97784.78
2019-03-11T21:39:11.572Z,97783.44
2019-03-11T21:41:41.463Z,97782.12
2019-03-11T21:44:11.293Z,97791.67
2019-03-11T21:46:41.107Z,97798.14
2019-03-11T21:49:10.999Z,97796.86
2019-03-11T21:51:41.551Z,97798.58
2019-03-11T21:54:11.404Z,97802.01
2019-03-11T21:56:43.256Z,97806.78
2019-03-11T21:59:13.395Z,97807.66
2019-03-11T22:01:45.361Z,97810.70
2019-03-11T22:04:15.158Z,97802.50
2019-03-11T22:06:44.936Z,97802.45
2019-03-11T22:09:14.815Z,97805.93
2019-03-11T22:11:44.709Z,97797.27
2019-03-11T22:14:14.539Z,97799.87
2019-03-11T22:16:44.526Z,97806.37
2019-03-11T22:19:14.378Z,97812.47
2019-03-11T22:21:44.451Z,97810.75
2019-03-11T22:24:14.289Z,97818.63
2019-03-11T22:26:44.898Z,97822.06
2019-03-11T22:29:15.576Z,97823.80
2019-03-11T22:31:45.427Z,97813.42
2019-03-11T22:34:15.165Z,97822.94
2019-03-11T22:36:44.926Z,97815.58
2019-03-11T22:39:14.757Z,97821.61
2019-03-11T22:41:44.519Z,97827.22
2019-03-11T22:44:14.291Z,97820.73
2019-03-11T22:46:44.091Z,97824.63
2019-03-11T22:49:13.923Z,97823.80
2019-03-11T22:51:44.007Z,97827.25
2019-03-11T22:54:13.857Z,97830.27
2019-03-11T22:56:43.672Z,97833.28
2019-03-11T22:59:15.033Z,97829.37
2019-03-11T23:01:44.951Z,97825.45
2019-03-11T23:04:15.723Z,97823.77
2019-03-11T23:06:47.848Z,97831.58
2019-03-11T23:09:17.681Z,97838.08
2019-03-11T23:11:47.428Z,97839.35
2019-03-11T23:14:17.247Z,97831.13
2019-03-11T23:16:47.169Z,97833.75
2019-03-11T23:19:17.011Z,97837.61
2019-03-11T23:21:46.772Z,97840.23
2019-03-11T23:24:17.377Z,97835.47
2019-03-11T23:26:47.217Z,97840.22
2019-03-11T23:29:17.018Z,97841.54
2019-03-11T23:31:47.612Z,97839.36
2019-03-11T23:34:17.392Z,97838.09
2019-03-11T23:36:47.736Z,97833.75
2019-03-11T23:39:17.732Z,97843.69
2019-03-11T23:41:47.472Z,97848.47
2019-03-11T23:44:18.866Z,97839.36
2019-03-11T23:46:49.047Z,97842.80
2019-03-11T23:49:19.815Z,97844.94
2019-03-11T23:51:49.414Z,97842.31
2019-03-11T23:54:19.203Z,97841.40
2019-03-11T23:56:48.863Z,97826.30
2019-03-11T23:59:18.641Z,97826.70
